sensor_id;sensor_type;location;lat;lon;timestamp;temperature;humidity
22950;DHT22;11641;51.018;4.474;2022-08-19T00:01:40;20.80;99.90
22950;DHT22;11641;51.018;4.474;2022-08-19T00:04:08;20.70;99.90
22950;DHT22;11641;51.018;4.474;2022-08-19T00:06:34;20.70;99.90
22950;DHT22;11641;51.018;4.474;2022-08-19T00:09:02;20.70;99.90
22950;DHT22;11641;51.018;4.474;2022-08-19T00:11:29;20.50;99.90
22950;DHT22;11641;51.018;4.474;2022-08-19T00:13:57;20.40;99.90
22950;DHT22;11641;51.018;4.474;2022-08-19T00:16:24;20.50;99.90
22950;DHT22;11641;51.018;4.474;2022-08-19T00:18:54;20.40;99.90
22950;DHT22;11641;51.018;4.474;2022-08-19T00:21:21;20.40;99.90
22950;DHT22;11641;51.018;4.474;2022-08-19T00:23:47;20.40;99.90
22950;DHT22;11641;51.018;4.474;2022-08-19T00:26:15;20.40;99.90
22950;DHT22;11641;51.018;4.474;2022-08-19T00:28:42;20.30;99.90
22950;DHT22;11641;51.018;4.474;2022-08-19T00:31:08;20.20;99.90
22950;DHT22;11641;51.018;4.474;2022-08-19T00:33:37;20.10;99.90
22950;DHT22;11641;51.018;4.474;2022-08-19T00:36:05;20.10;99.90
22950;DHT22;11641;51.018;4.474;2022-08-19T00:38:33;20.10;99.90
22950;DHT22;11641;51.018;4.474;2022-08-19T00:40:59;20.20;99.90
22950;DHT22;11641;51.018;4.474;2022-08-19T00:43:27;20.20;99.90
22950;DHT22;11641;51.018;4.474;2022-08-19T00:45:54;20.10;99.90
22950;DHT22;11641;51.018;4.474;2022-08-19T00:48:21;20.10;99.90
22950;DHT22;11641;51.018;4.474;2022-08-19T00:50:50;20.00;99.90
22950;DHT22;11641;51.018;4.474;2022-08-19T00:53:23;20.00;99.90
22950;DHT22;11641;51.018;4.474;2022-08-19T00:55:51;20.10;99.90
22950;DHT22;11641;51.018;4.474;2022-08-19T00:58:20;20.10;99.90
22950;DHT22;11641;51.018;4.474;2022-08-19T01:00:49;20.10;99.90
22950;DHT22;11641;51.018;4.474;2022-08-19T01:03:19;20.10;99.90
22950;DHT22;11641;51.018;4.474;2022-08-19T01:05:46;20.00;99.90
22950;DHT22;11641;51.018;4.474;2022-08-19T01:08:14;20.10;99.90
22950;DHT22;11641;51.018;4.474;2022-08-19T01:10:43;20.10;99.90
22950;DHT22;11641;51.018;4.474;2022-08-19T01:13:14;20.10;99.90
22950;DHT22;11641;51.018;4.474;2022-08-19T01:15:47;20.10;99.90
22950;DHT22;11641;51.018;4.474;2022-08-19T01:18:16;19.90;99.90
22950;DHT22;11641;51.018;4.474;2022-08-19T01:20:43;20.00;99.90
22950;DHT22;11641;51.018;4.474;2022-08-19T01:23:10;20.00;99.90
22950;DHT22;11641;51.018;4.474;2022-08-19T01:25:49;20.00;99.90
22950;DHT22;11641;51.018;4.474;2022-08-19T01:28:22;20.00;99.90
22950;DHT22;11641;51.018;4.474;2022-08-19T01:30:48;20.10;99.90
22950;DHT22;11641;51.018;4.474;2022-08-19T01:33:17;20.10;99.90
22950;DHT22;11641;51.018;4.474;2022-08-19T01:35:53;20.10;99.90
22950;DHT22;11641;51.018;4.474;2022-08-19T01:38:22;20.10;99.90
22950;DHT22;11641;51.018;4.474;2022-08-19T01:40:49;20.10;99.90
22950;DHT22;11641;51.018;4.474;2022-08-19T01:43:15;20.20;99.90
22950;DHT22;11641;51.018;4.474;2022-08-19T01:45:42;20.10;99.90
22950;DHT22;11641;51.018;4.474;2022-08-19T01:48:16;20.00;99.90
22950;DHT22;11641;51.018;4.474;2022-08-19T01:50:42;20.00;99.90
22950;DHT22;11641;51.018;4.474;2022-08-19T01:53:11;19.80;99.90
22950;DHT22;11641;51.018;4.474;2022-08-19T01:55:40;19.70;99.90
22950;DHT22;11641;51.018;4.474;2022-08-19T01:58:13;19.60;99.90
22950;DHT22;11641;51.018;4.474;2022-08-19T02:00:41;19.60;99.90
22950;DHT22;11641;51.018;4.474;2022-08-19T02:03:08;19.60;99.90
22950;DHT22;11641;51.018;4.474;2022-08-19T02:05:35;19.60;99.90
22950;DHT22;11641;51.018;4.474;2022-08-19T02:08:02;19.50;99.90
22950;DHT22;11641;51.018;4.474;2022-08-19T02:10:30;19.40;99.90
22950;DHT22;11641;51.018;4.474;2022-08-19T02:12:56;19.40;99.90
22950;DHT22;11641;51.018;4.474;2022-08-19T02:15:21;19.40;99.90
22950;DHT22;11641;51.018;4.474;2022-08-19T02:17:48;19.40;99.90
22950;DHT22;11641;51.018;4.474;2022-08-19T02:20:16;19.40;99.90
22950;DHT22;11641;51.018;4.474;2022-08-19T02:22:44;19.30;99.90
22950;DHT22;11641;51.018;4.474;2022-08-19T02:25:12;19.30;99.90
22950;DHT22;11641;51.018;4.474;2022-08-19T02:27:39;19.20;99.90
22950;DHT22;11641;51.018;4.474;2022-08-19T02:30:13;19.20;99.90
22950;DHT22;11641;51.018;4.474;2022-08-19T02:32:39;19.20;99.90
22950;DHT22;11641;51.018;4.474;2022-08-19T02:35:05;19.10;99.90
22950;DHT22;11641;51.018;4.474;2022-08-19T02:37:31;19.10;99.90
22950;DHT22;11641;51.018;4.474;2022-08-19T02:40:15;19.10;99.90
22950;DHT22;11641;51.018;4.474;2022-08-19T02:42:43;19.10;99.90
22950;DHT22;11641;51.018;4.474;2022-08-19T02:45:09;19.10;99.90
22950;DHT22;11641;51.018;4.474;2022-08-19T02:47:35;19.00;99.90
22950;DHT22;11641;51.018;4.474;2022-08-19T02:50:01;19.10;99.90
22950;DHT22;11641;51.018;4.474;2022-08-19T02:52:27;19.10;99.90
22950;DHT22;11641;51.018;4.474;2022-08-19T02:54:55;19.00;99.90
22950;DHT22;11641;51.018;4.474;2022-08-19T02:57:23;19.00;99.90
22950;DHT22;11641;51.018;4.474;2022-08-19T02:59:49;19.00;99.90
22950;DHT22;11641;51.018;4.474;2022-08-19T03:02:16;19.00;99.90
22950;DHT22;11641;51.018;4.474;2022-08-19T03:04:42;19.00;99.90
22950;DHT22;11641;51.018;4.474;2022-08-19T03:07:09;19.00;99.90
22950;DHT22;11641;51.018;4.474;2022-08-19T03:09:41;19.00;99.90
22950;DHT22;11641;51.018;4.474;2022-08-19T03:12:10;19.00;99.90
22950;DHT22;11641;51.018;4.474;2022-08-19T03:14:38;19.00;99.90
22950;DHT22;11641;51.018;4.474;2022-08-19T03:17:04;19.10;99.90
22950;DHT22;11641;51.018;4.474;2022-08-19T03:19:30;19.10;99.90
22950;DHT22;11641;51.018;4.474;2022-08-19T03:21:59;19.00;99.90
22950;DHT22;11641;51.018;4.474;2022-08-19T03:24:27;19.00;99.90
22950;DHT22;11641;51.018;4.474;2022-08-19T03:26:58;18.90;99.90
22950;DHT22;11641;51.018;4.474;2022-08-19T03:29:28;18.90;99.90
22950;DHT22;11641;51.018;4.474;2022-08-19T03:31:55;18.80;99.90
22950;DHT22;11641;51.018;4.474;2022-08-19T03:34:24;18.60;99.90
22950;DHT22;11641;51.018;4.474;2022-08-19T03:36:55;18.70;99.90
22950;DHT22;11641;51.018;4.474;2022-08-19T03:39:23;18.60;99.90
22950;DHT22;11641;51.018;4.474;2022-08-19T03:41:50;18.50;99.90
22950;DHT22;11641;51.018;4.474;2022-08-19T03:44:21;18.50;99.90
22950;DHT22;11641;51.018;4.474;2022-08-19T03:46:52;18.50;99.90
22950;DHT22;11641;51.018;4.474;2022-08-19T03:49:19;18.40;99.90
22950;DHT22;11641;51.018;4.474;2022-08-19T03:51:47;18.20;99.90
22950;DHT22;11641;51.018;4.474;2022-08-19T03:54:20;18.30;99.90
22950;DHT22;11641;51.018;4.474;2022-08-19T03:56:48;18.10;99.90
22950;DHT22;11641;51.018;4.474;2022-08-19T03:59:18;18.10;99.90
22950;DHT22;11641;51.018;4.474;2022-08-19T04:01:45;18.10;99.90
22950;DHT22;11641;51.018;4.474;2022-08-19T04:04:11;18.00;99.90
22950;DHT22;11641;51.018;4.474;2022-08-19T04:06:40;18.00;99.90
22950;DHT22;11641;51.018;4.474;2022-08-19T04:09:08;18.00;99.90
22950;DHT22;11641;51.018;4.474;2022-08-19T04:11:38;18.00;99.90
22950;DHT22;11641;51.018;4.474;2022-08-19T04:14:12;18.00;99.90
22950;DHT22;11641;51.018;4.474;2022-08-19T04:16:38;18.00;99.90
22950;DHT22;11641;51.018;4.474;2022-08-19T04:19:05;18.00;99.90
22950;DHT22;11641;51.018;4.474;2022-08-19T04:21:31;18.00;99.90
22950;DHT22;11641;51.018;4.474;2022-08-19T04:23:57;18.00;99.90
22950;DHT22;11641;51.018;4.474;2022-08-19T04:26:28;18.10;99.90
22950;DHT22;11641;51.018;4.474;2022-08-19T04:29:00;18.10;99.90
22950;DHT22;11641;51.018;4.474;2022-08-19T04:31:29;18.00;99.90
22950;DHT22;11641;51.018;4.474;2022-08-19T04:33:59;18.00;99.90
22950;DHT22;11641;51.018;4.474;2022-08-19T04:36:34;17.90;99.90
22950;DHT22;11641;51.018;4.474;2022-08-19T04:39:07;17.80;99.90
22950;DHT22;11641;51.018;4.474;2022-08-19T04:41:36;17.90;99.90
22950;DHT22;11641;51.018;4.474;2022-08-19T04:44:21;17.80;99.90
22950;DHT22;11641;51.018;4.474;2022-08-19T04:46:48;17.80;99.90
22950;DHT22;11641;51.018;4.474;2022-08-19T04:49:20;17.80;99.90
22950;DHT22;11641;51.018;4.474;2022-08-19T04:51:47;17.80;99.90
22950;DHT22;11641;51.018;4.474;2022-08-19T04:54:15;17.70;99.90
22950;DHT22;11641;51.018;4.474;2022-08-19T04:56:41;17.80;99.90
22950;DHT22;11641;51.018;4.474;2022-08-19T04:59:12;17.60;99.90
22950;DHT22;11641;51.018;4.474;2022-08-19T05:01:39;17.70;99.90
22950;DHT22;11641;51.018;4.474;2022-08-19T05:04:08;17.70;99.90
22950;DHT22;11641;51.018;4.474;2022-08-19T05:06:37;17.80;99.90
22950;DHT22;11641;51.018;4.474;2022-08-19T05:09:05;17.70;99.90
22950;DHT22;11641;51.018;4.474;2022-08-19T05:11:35;17.80;99.90
22950;DHT22;11641;51.018;4.474;2022-08-19T05:14:05;17.80;99.90
22950;DHT22;11641;51.018;4.474;2022-08-19T05:16:31;17.90;99.90
22950;DHT22;11641;51.018;4.474;2022-08-19T05:19:01;18.00;99.90
22950;DHT22;11641;51.018;4.474;2022-08-19T05:21:46;18.10;99.90
22950;DHT22;11641;51.018;4.474;2022-08-19T05:24:30;18.10;99.90
22950;DHT22;11641;51.018;4.474;2022-08-19T05:27:00;18.10;99.90
22950;DHT22;11641;51.018;4.474;2022-08-19T05:29:28;18.00;99.90
22950;DHT22;11641;51.018;4.474;2022-08-19T05:31:55;18.10;99.90
22950;DHT22;11641;51.018;4.474;2022-08-19T05:34:22;18.10;99.90
22950;DHT22;11641;51.018;4.474;2022-08-19T05:36:57;18.10;99.90
22950;DHT22;11641;51.018;4.474;2022-08-19T05:39:28;18.20;99.90
22950;DHT22;11641;51.018;4.474;2022-08-19T05:41:57;18.20;99.90
22950;DHT22;11641;51.018;4.474;2022-08-19T05:44:28;18.10;99.90
22950;DHT22;11641;51.018;4.474;2022-08-19T05:46:58;18.20;99.90
22950;DHT22;11641;51.018;4.474;2022-08-19T05:49:25;18.20;99.90
22950;DHT22;11641;51.018;4.474;2022-08-19T05:51:52;18.50;99.90
22950;DHT22;11641;51.018;4.474;2022-08-19T05:54:18;18.70;99.90
22950;DHT22;11641;51.018;4.474;2022-08-19T05:56:46;19.00;99.90
22950;DHT22;11641;51.018;4.474;2022-08-19T05:59:14;18.90;99.90
22950;DHT22;11641;51.018;4.474;2022-08-19T06:01:43;18.90;99.90
22950;DHT22;11641;51.018;4.474;2022-08-19T06:04:09;19.00;99.90
22950;DHT22;11641;51.018;4.474;2022-08-19T06:06:36;19.20;99.90
22950;DHT22;11641;51.018;4.474;2022-08-19T06:09:09;19.30;99.90
22950;DHT22;11641;51.018;4.474;2022-08-19T06:14:11;19.80;99.90
22950;DHT22;11641;51.018;4.474;2022-08-19T06:16:39;20.00;99.90
22950;DHT22;11641;51.018;4.474;2022-08-19T06:19:13;19.90;99.90
22950;DHT22;11641;51.018;4.474;2022-08-19T06:21:41;19.90;99.90
22950;DHT22;11641;51.018;4.474;2022-08-19T06:24:14;20.10;99.90
22950;DHT22;11641;51.018;4.474;2022-08-19T06:26:42;20.30;99.90
22950;DHT22;11641;51.018;4.474;2022-08-19T06:29:15;20.20;99.90
22950;DHT22;11641;51.018;4.474;2022-08-19T06:31:44;20.30;99.90
22950;DHT22;11641;51.018;4.474;2022-08-19T06:34:12;20.30;99.90
22950;DHT22;11641;51.018;4.474;2022-08-19T06:36:41;20.50;99.90
22950;DHT22;11641;51.018;4.474;2022-08-19T06:39:20;20.50;99.90
22950;DHT22;11641;51.018;4.474;2022-08-19T06:41:49;20.50;99.90
22950;DHT22;11641;51.018;4.474;2022-08-19T06:44:17;20.70;99.90
22950;DHT22;11641;51.018;4.474;2022-08-19T06:46:43;20.70;99.90
22950;DHT22;11641;51.018;4.474;2022-08-19T06:49:09;20.70;99.90
22950;DHT22;11641;51.018;4.474;2022-08-19T06:51:42;20.50;99.90
22950;DHT22;11641;51.018;4.474;2022-08-19T06:54:08;20.60;99.90
22950;DHT22;11641;51.018;4.474;2022-08-19T06:56:38;20.70;99.90
22950;DHT22;11641;51.018;4.474;2022-08-19T06:59:08;20.80;99.90
22950;DHT22;11641;51.018;4.474;2022-08-19T07:01:39;20.90;99.90
22950;DHT22;11641;51.018;4.474;2022-08-19T07:04:10;21.10;99.90
22950;DHT22;11641;51.018;4.474;2022-08-19T07:06:37;21.10;99.90
22950;DHT22;11641;51.018;4.474;2022-08-19T07:09:07;21.40;99.90
22950;DHT22;11641;51.018;4.474;2022-08-19T07:11:34;21.70;99.90
22950;DHT22;11641;51.018;4.474;2022-08-19T07:14:01;21.70;99.90
22950;DHT22;11641;51.018;4.474;2022-08-19T07:16:27;21.60;99.90
22950;DHT22;11641;51.018;4.474;2022-08-19T07:18:54;21.60;99.90
22950;DHT22;11641;51.018;4.474;2022-08-19T07:21:25;21.70;99.90
22950;DHT22;11641;51.018;4.474;2022-08-19T07:23:53;21.60;99.90
22950;DHT22;11641;51.018;4.474;2022-08-19T07:26:25;21.70;99.90
22950;DHT22;11641;51.018;4.474;2022-08-19T07:28:52;21.70;99.90
22950;DHT22;11641;51.018;4.474;2022-08-19T07:31:23;21.80;99.90
22950;DHT22;11641;51.018;4.474;2022-08-19T07:33:51;22.00;99.90
22950;DHT22;11641;51.018;4.474;2022-08-19T07:36:20;22.10;99.90
22950;DHT22;11641;51.018;4.474;2022-08-19T07:38:49;22.30;99.90
22950;DHT22;11641;51.018;4.474;2022-08-19T07:41:18;22.30;99.90
22950;DHT22;11641;51.018;4.474;2022-08-19T07:43:46;22.10;99.90
22950;DHT22;11641;51.018;4.474;2022-08-19T07:46:16;21.70;99.90
22950;DHT22;11641;51.018;4.474;2022-08-19T07:48:55;21.60;99.90
22950;DHT22;11641;51.018;4.474;2022-08-19T07:51:21;21.70;99.90
22950;DHT22;11641;51.018;4.474;2022-08-19T07:53:48;22.20;99.90
22950;DHT22;11641;51.018;4.474;2022-08-19T07:56:16;22.40;99.90
22950;DHT22;11641;51.018;4.474;2022-08-19T07:58:46;22.20;99.90
22950;DHT22;11641;51.018;4.474;2022-08-19T08:01:24;22.30;99.90
22950;DHT22;11641;51.018;4.474;2022-08-19T08:03:54;22.60;99.90
22950;DHT22;11641;51.018;4.474;2022-08-19T08:06:38;23.00;99.90
22950;DHT22;11641;51.018;4.474;2022-08-19T08:09:29;23.20;99.90
22950;DHT22;11641;51.018;4.474;2022-08-19T08:12:02;23.70;99.90
22950;DHT22;11641;51.018;4.474;2022-08-19T08:14:35;23.90;99.90
22950;DHT22;11641;51.018;4.474;2022-08-19T08:17:02;24.00;99.90
22950;DHT22;11641;51.018;4.474;2022-08-19T08:19:28;23.80;99.90
22950;DHT22;11641;51.018;4.474;2022-08-19T08:22:00;24.10;99.90
22950;DHT22;11641;51.018;4.474;2022-08-19T08:24:28;24.40;99.90
22950;DHT22;11641;51.018;4.474;2022-08-19T08:26:54;24.50;99.90
22950;DHT22;11641;51.018;4.474;2022-08-19T08:29:21;24.30;99.90
22950;DHT22;11641;51.018;4.474;2022-08-19T08:31:52;24.20;99.90
22950;DHT22;11641;51.018;4.474;2022-08-19T08:34:19;24.30;99.90
22950;DHT22;11641;51.018;4.474;2022-08-19T08:36:47;24.30;99.90
22950;DHT22;11641;51.018;4.474;2022-08-19T08:39:20;24.30;99.90
22950;DHT22;11641;51.018;4.474;2022-08-19T08:45:06;24.10;99.90
22950;DHT22;11641;51.018;4.474;2022-08-19T08:47:36;24.00;99.90
22950;DHT22;11641;51.018;4.474;2022-08-19T08:50:12;24.30;99.90
22950;DHT22;11641;51.018;4.474;2022-08-19T08:52:46;23.80;99.90
22950;DHT22;11641;51.018;4.474;2022-08-19T08:55:24;23.80;99.90
22950;DHT22;11641;51.018;4.474;2022-08-19T08:57:55;23.90;99.90
22950;DHT22;11641;51.018;4.474;2022-08-19T09:00:26;24.20;99.90
22950;DHT22;11641;51.018;4.474;2022-08-19T09:02:54;24.80;99.90
22950;DHT22;11641;51.018;4.474;2022-08-19T09:05:21;24.60;99.90
22950;DHT22;11641;51.018;4.474;2022-08-19T09:08:13;24.50;99.90
22950;DHT22;11641;51.018;4.474;2022-08-19T09:10:44;24.20;99.90
22950;DHT22;11641;51.018;4.474;2022-08-19T09:16:47;24.20;99.90
22950;DHT22;11641;51.018;4.474;2022-08-19T09:19:17;24.30;99.90
22950;DHT22;11641;51.018;4.474;2022-08-19T09:21:44;24.50;99.90
22950;DHT22;11641;51.018;4.474;2022-08-19T09:24:11;24.40;99.90
22950;DHT22;11641;51.018;4.474;2022-08-19T09:26:37;24.40;99.90
22950;DHT22;11641;51.018;4.474;2022-08-19T09:29:02;24.50;99.90
22950;DHT22;11641;51.018;4.474;2022-08-19T09:31:31;24.90;99.90
22950;DHT22;11641;51.018;4.474;2022-08-19T09:33:58;25.20;99.90
22950;DHT22;11641;51.018;4.474;2022-08-19T09:36:26;25.40;99.90
22950;DHT22;11641;51.018;4.474;2022-08-19T09:38:58;25.60;99.90
22950;DHT22;11641;51.018;4.474;2022-08-19T09:41:24;25.30;99.90
22950;DHT22;11641;51.018;4.474;2022-08-19T09:43:55;25.00;99.90
22950;DHT22;11641;51.018;4.474;2022-08-19T09:46:23;25.20;99.90
22950;DHT22;11641;51.018;4.474;2022-08-19T09:48:49;25.00;99.90
22950;DHT22;11641;51.018;4.474;2022-08-19T09:51:24;25.00;99.90
22950;DHT22;11641;51.018;4.474;2022-08-19T09:53:53;24.90;99.90
22950;DHT22;11641;51.018;4.474;2022-08-19T09:56:22;25.00;99.90
22950;DHT22;11641;51.018;4.474;2022-08-19T09:58:48;25.20;99.90
22950;DHT22;11641;51.018;4.474;2022-08-19T10:01:21;25.50;99.90
22950;DHT22;11641;51.018;4.474;2022-08-19T10:03:56;25.50;99.90
22950;DHT22;11641;51.018;4.474;2022-08-19T10:06:23;25.50;99.90
22950;DHT22;11641;51.018;4.474;2022-08-19T10:08:50;25.50;99.90
22950;DHT22;11641;51.018;4.474;2022-08-19T10:11:18;25.50;99.90
22950;DHT22;11641;51.018;4.474;2022-08-19T10:13:44;25.50;99.90
22950;DHT22;11641;51.018;4.474;2022-08-19T10:16:14;26.00;99.90
22950;DHT22;11641;51.018;4.474;2022-08-19T10:18:43;25.60;99.90
22950;DHT22;11641;51.018;4.474;2022-08-19T10:23:44;25.40;99.90
22950;DHT22;11641;51.018;4.474;2022-08-19T10:26:17;25.60;99.90
22950;DHT22;11641;51.018;4.474;2022-08-19T10:28:43;25.90;99.90
22950;DHT22;11641;51.018;4.474;2022-08-19T10:31:12;26.30;99.90
22950;DHT22;11641;51.018;4.474;2022-08-19T10:33:49;26.50;99.90
22950;DHT22;11641;51.018;4.474;2022-08-19T10:36:20;26.40;99.90
22950;DHT22;11641;51.018;4.474;2022-08-19T10:38:52;26.60;99.90
22950;DHT22;11641;51.018;4.474;2022-08-19T10:41:20;26.80;99.90
22950;DHT22;11641;51.018;4.474;2022-08-19T10:43:52;27.10;99.90
22950;DHT22;11641;51.018;4.474;2022-08-19T10:46:23;27.00;99.90
22950;DHT22;11641;51.018;4.474;2022-08-19T10:48:50;27.50;99.90
22950;DHT22;11641;51.018;4.474;2022-08-19T10:51:21;28.00;99.90
22950;DHT22;11641;51.018;4.474;2022-08-19T10:54:06;28.40;99.90
22950;DHT22;11641;51.018;4.474;2022-08-19T10:56:33;28.50;99.90
22950;DHT22;11641;51.018;4.474;2022-08-19T10:59:28;28.10;99.90
22950;DHT22;11641;51.018;4.474;2022-08-19T11:01:59;28.20;99.90
22950;DHT22;11641;51.018;4.474;2022-08-19T11:04:28;27.60;99.90
22950;DHT22;11641;51.018;4.474;2022-08-19T11:06:58;27.40;99.90
22950;DHT22;11641;51.018;4.474;2022-08-19T11:09:29;27.30;99.90
22950;DHT22;11641;51.018;4.474;2022-08-19T11:11:58;27.00;99.90
22950;DHT22;11641;51.018;4.474;2022-08-19T11:14:24;27.00;99.90
22950;DHT22;11641;51.018;4.474;2022-08-19T11:16:52;27.10;99.90
22950;DHT22;11641;51.018;4.474;2022-08-19T11:19:21;26.50;99.90
22950;DHT22;11641;51.018;4.474;2022-08-19T11:21:50;26.40;99.90
22950;DHT22;11641;51.018;4.474;2022-08-19T11:24:22;26.70;99.90
22950;DHT22;11641;51.018;4.474;2022-08-19T11:26:50;26.50;99.90
22950;DHT22;11641;51.018;4.474;2022-08-19T11:29:22;25.90;99.90
22950;DHT22;11641;51.018;4.474;2022-08-19T11:31:51;26.00;99.90
22950;DHT22;11641;51.018;4.474;2022-08-19T11:34:23;26.00;99.90
22950;DHT22;11641;51.018;4.474;2022-08-19T11:36:52;25.80;99.90
22950;DHT22;11641;51.018;4.474;2022-08-19T11:39:21;25.50;99.90
22950;DHT22;11641;51.018;4.474;2022-08-19T11:41:49;25.70;99.90
22950;DHT22;11641;51.018;4.474;2022-08-19T11:44:17;25.70;99.90
22950;DHT22;11641;51.018;4.474;2022-08-19T11:46:44;26.10;99.90
22950;DHT22;11641;51.018;4.474;2022-08-19T11:49:17;26.60;99.90
22950;DHT22;11641;51.018;4.474;2022-08-19T11:51:44;27.20;99.90
22950;DHT22;11641;51.018;4.474;2022-08-19T11:54:16;27.60;99.90
22950;DHT22;11641;51.018;4.474;2022-08-19T11:56:44;27.70;99.90
22950;DHT22;11641;51.018;4.474;2022-08-19T11:59:11;28.40;99.90
22950;DHT22;11641;51.018;4.474;2022-08-19T12:01:37;29.80;99.90
22950;DHT22;11641;51.018;4.474;2022-08-19T12:04:03;31.40;99.90
22950;DHT22;11641;51.018;4.474;2022-08-19T12:06:33;31.90;99.90
22950;DHT22;11641;51.018;4.474;2022-08-19T12:09:06;31.80;99.90
22950;DHT22;11641;51.018;4.474;2022-08-19T12:11:33;32.30;99.90
22950;DHT22;11641;51.018;4.474;2022-08-19T12:14:00;32.20;99.90
22950;DHT22;11641;51.018;4.474;2022-08-19T12:16:28;32.30;99.90
22950;DHT22;11641;51.018;4.474;2022-08-19T12:18:59;32.50;99.50
22950;DHT22;11641;51.018;4.474;2022-08-19T12:21:31;32.60;98.90
22950;DHT22;11641;51.018;4.474;2022-08-19T12:23:59;31.90;99.90
22950;DHT22;11641;51.018;4.474;2022-08-19T12:26:27;31.20;99.90
22950;DHT22;11641;51.018;4.474;2022-08-19T12:28:54;31.10;99.90
22950;DHT22;11641;51.018;4.474;2022-08-19T12:31:22;30.60;99.90
22950;DHT22;11641;51.018;4.474;2022-08-19T12:33:51;29.90;99.90
22950;DHT22;11641;51.018;4.474;2022-08-19T12:36:18;30.20;99.90
22950;DHT22;11641;51.018;4.474;2022-08-19T12:38:44;29.50;99.90
22950;DHT22;11641;51.018;4.474;2022-08-19T12:41:13;29.50;99.90
22950;DHT22;11641;51.018;4.474;2022-08-19T12:43:39;29.90;99.90
22950;DHT22;11641;51.018;4.474;2022-08-19T12:46:07;29.60;99.90
22950;DHT22;11641;51.018;4.474;2022-08-19T12:48:35;29.90;99.90
22950;DHT22;11641;51.018;4.474;2022-08-19T12:51:09;30.30;99.90
22950;DHT22;11641;51.018;4.474;2022-08-19T12:53:35;30.00;99.90
22950;DHT22;11641;51.018;4.474;2022-08-19T12:56:02;30.00;99.90
22950;DHT22;11641;51.018;4.474;2022-08-19T12:58:29;29.60;99.90
22950;DHT22;11641;51.018;4.474;2022-08-19T13:00:55;29.70;99.90
22950;DHT22;11641;51.018;4.474;2022-08-19T13:03:23;29.60;99.90
22950;DHT22;11641;51.018;4.474;2022-08-19T13:05:55;29.70;99.90
22950;DHT22;11641;51.018;4.474;2022-08-19T13:08:23;30.10;99.90
22950;DHT22;11641;51.018;4.474;2022-08-19T13:10:51;30.50;99.90
22950;DHT22;11641;51.018;4.474;2022-08-19T13:13:17;30.30;99.90
22950;DHT22;11641;51.018;4.474;2022-08-19T13:15:45;30.80;99.90
22950;DHT22;11641;51.018;4.474;2022-08-19T13:18:11;30.90;99.90
22950;DHT22;11641;51.018;4.474;2022-08-19T13:20:43;31.20;99.90
22950;DHT22;11641;51.018;4.474;2022-08-19T13:23:11;31.10;99.90
22950;DHT22;11641;51.018;4.474;2022-08-19T13:25:40;31.50;99.90
22950;DHT22;11641;51.018;4.474;2022-08-19T13:28:06;32.70;99.10
22950;DHT22;11641;51.018;4.474;2022-08-19T13:30:32;32.30;98.30
22950;DHT22;11641;51.018;4.474;2022-08-19T13:33:16;32.20;99.00
22950;DHT22;11641;51.018;4.474;2022-08-19T13:35:43;35.10;94.70
22950;DHT22;11641;51.018;4.474;2022-08-19T13:38:20;36.10;89.60
22950;DHT22;11641;51.018;4.474;2022-08-19T13:40:46;38.00;81.00
22950;DHT22;11641;51.018;4.474;2022-08-19T13:43:16;39.30;76.10
22950;DHT22;11641;51.018;4.474;2022-08-19T13:45:45;40.40;68.90
22950;DHT22;11641;51.018;4.474;2022-08-19T13:48:12;41.30;65.40
22950;DHT22;11641;51.018;4.474;2022-08-19T13:50:43;38.40;68.40
22950;DHT22;11641;51.018;4.474;2022-08-19T13:53:11;37.50;74.20
22950;DHT22;11641;51.018;4.474;2022-08-19T13:55:41;36.70;73.60
22950;DHT22;11641;51.018;4.474;2022-08-19T13:58:13;36.50;76.70
22950;DHT22;11641;51.018;4.474;2022-08-19T14:00:44;36.40;75.90
22950;DHT22;11641;51.018;4.474;2022-08-19T14:03:10;36.40;75.60
22950;DHT22;11641;51.018;4.474;2022-08-19T14:05:39;35.80;76.30
22950;DHT22;11641;51.018;4.474;2022-08-19T14:08:05;35.10;78.60
22950;DHT22;11641;51.018;4.474;2022-08-19T14:10:31;34.60;81.00
22950;DHT22;11641;51.018;4.474;2022-08-19T14:13:00;36.30;77.60
22950;DHT22;11641;51.018;4.474;2022-08-19T14:15:29;37.90;73.60
22950;DHT22;11641;51.018;4.474;2022-08-19T14:17:58;39.70;67.30
22950;DHT22;11641;51.018;4.474;2022-08-19T14:20:27;39.70;65.10
22950;DHT22;11641;51.018;4.474;2022-08-19T14:22:55;38.80;65.90
22950;DHT22;11641;51.018;4.474;2022-08-19T14:25:24;38.10;67.70
22950;DHT22;11641;51.018;4.474;2022-08-19T14:27:51;37.10;70.30
22950;DHT22;11641;51.018;4.474;2022-08-19T14:30:25;37.10;71.30
22950;DHT22;11641;51.018;4.474;2022-08-19T14:32:56;35.40;75.10
22950;DHT22;11641;51.018;4.474;2022-08-19T14:35:23;34.20;78.90
22950;DHT22;11641;51.018;4.474;2022-08-19T14:37:50;32.50;83.60
22950;DHT22;11641;51.018;4.474;2022-08-19T14:40:19;31.50;89.50
22950;DHT22;11641;51.018;4.474;2022-08-19T14:42:54;30.80;92.10
22950;DHT22;11641;51.018;4.474;2022-08-19T14:45:28;29.60;96.30
22950;DHT22;11641;51.018;4.474;2022-08-19T14:47:55;28.40;99.90
22950;DHT22;11641;51.018;4.474;2022-08-19T14:50:23;28.10;99.90
22950;DHT22;11641;51.018;4.474;2022-08-19T14:52:49;28.50;99.90
22950;DHT22;11641;51.018;4.474;2022-08-19T14:55:17;28.50;99.90
22950;DHT22;11641;51.018;4.474;2022-08-19T14:57:44;28.70;99.90
22950;DHT22;11641;51.018;4.474;2022-08-19T15:00:14;28.50;99.90
22950;DHT22;11641;51.018;4.474;2022-08-19T15:02:41;27.90;99.90
22950;DHT22;11641;51.018;4.474;2022-08-19T15:05:09;27.80;99.90
22950;DHT22;11641;51.018;4.474;2022-08-19T15:07:38;27.50;99.90
22950;DHT22;11641;51.018;4.474;2022-08-19T15:10:05;27.70;99.90
22950;DHT22;11641;51.018;4.474;2022-08-19T15:12:36;27.90;99.90
22950;DHT22;11641;51.018;4.474;2022-08-19T15:15:04;27.90;99.90
22950;DHT22;11641;51.018;4.474;2022-08-19T15:17:32;27.60;99.90
22950;DHT22;11641;51.018;4.474;2022-08-19T15:19:58;27.50;99.90
22950;DHT22;11641;51.018;4.474;2022-08-19T15:22:26;27.70;99.90
22950;DHT22;11641;51.018;4.474;2022-08-19T15:24:53;28.30;99.90
22950;DHT22;11641;51.018;4.474;2022-08-19T15:27:21;30.50;99.90
22950;DHT22;11641;51.018;4.474;2022-08-19T15:29:47;32.40;99.90
22950;DHT22;11641;51.018;4.474;2022-08-19T15:32:15;32.10;99.90
22950;DHT22;11641;51.018;4.474;2022-08-19T15:34:43;31.50;99.90
22950;DHT22;11641;51.018;4.474;2022-08-19T15:37:08;30.10;99.90
22950;DHT22;11641;51.018;4.474;2022-08-19T15:39:35;30.00;99.90
22950;DHT22;11641;51.018;4.474;2022-08-19T15:42:01;29.70;99.90
22950;DHT22;11641;51.018;4.474;2022-08-19T15:44:29;29.70;99.90
22950;DHT22;11641;51.018;4.474;2022-08-19T15:46:56;29.90;99.90
22950;DHT22;11641;51.018;4.474;2022-08-19T15:49:22;30.10;99.90
22950;DHT22;11641;51.018;4.474;2022-08-19T15:51:49;29.50;99.90
22950;DHT22;11641;51.018;4.474;2022-08-19T15:54:18;29.20;99.90